createdAt,value
2022-12-19T00:01:17.545Z,14.50
2022-12-19T00:03:47.479Z,13.83
2022-12-19T00:06:17.098Z,17.70
2022-12-19T00:08:46.912Z,18.67
2022-12-19T00:11:16.861Z,39.20
2022-12-19T00:13:47.792Z,27.03
2022-12-19T00:16:19.042Z,17.27
2022-12-19T00:18:49.019Z,16.17
2022-12-19T00:21:18.973Z,15.60
2022-12-19T00:23:48.533Z,18.80
2022-12-19T00:26:18.645Z,14.03
2022-12-19T00:28:51.730Z,15.57
2022-12-19T00:31:21.863Z,18.50
2022-12-19T00:33:51.606Z,23.07
2022-12-19T00:36:22.990Z,24.33
2022-12-19T00:38:53.125Z,18.70
2022-12-19T00:41:23.314Z,20.10
2022-12-19T00:43:56.142Z,15.67
2022-12-19T00:46:26.662Z,18.93
2022-12-19T00:48:56.044Z,16.00
2022-12-19T00:51:26.596Z,18.97
2022-12-19T00:53:56.400Z,15.37
2022-12-19T00:56:26.688Z,21.37
2022-12-19T00:58:57.521Z,17.33
2022-12-19T01:01:28.412Z,14.90
2022-12-19T01:04:27.108Z,15.80
2022-12-19T01:06:49.955Z,19.47
2022-12-19T01:09:21.862Z,16.53
2022-12-19T01:12:09.105Z,14.40
2022-12-19T01:14:40.042Z,15.40
2022-12-19T01:17:10.160Z,18.20
2022-12-19T01:19:44.091Z,15.30
2022-12-19T01:22:14.206Z,19.70
2022-12-19T01:24:43.795Z,14.97
2022-12-19T01:27:13.099Z,15.73
2022-12-19T01:29:52.136Z,16.73
2022-12-19T01:32:22.506Z,13.90
2022-12-19T01:34:51.672Z,16.50
2022-12-19T01:37:21.376Z,14.47
2022-12-19T01:39:50.561Z,15.47
2022-12-19T01:42:23.041Z,18.40
2022-12-19T01:45:04.885Z,16.60
2022-12-19T01:47:35.520Z,13.57
2022-12-19T01:50:04.795Z,12.30
2022-12-19T01:52:34.055Z,15.93
2022-12-19T01:55:03.518Z,17.03
2022-12-19T01:57:32.756Z,14.10
2022-12-19T02:00:06.540Z,15.80
2022-12-19T02:02:45.224Z,15.73
2022-12-19T02:05:14.578Z,13.47
2022-12-19T02:07:45.510Z,13.00
2022-12-19T02:10:14.710Z,13.23
2022-12-19T02:12:45.511Z,19.30
2022-12-19T02:15:18.082Z,17.10
2022-12-19T02:18:07.051Z,14.10
2022-12-19T02:20:47.611Z,15.80
2022-12-19T02:23:30.200Z,18.90
2022-12-19T02:26:09.491Z,13.80
2022-12-19T02:28:48.893Z,15.87
2022-12-19T02:31:23.138Z,12.90
2022-12-19T02:33:56.821Z,16.70
2022-12-19T02:36:32.433Z,11.87
2022-12-19T02:39:10.076Z,13.57
2022-12-19T02:41:44.506Z,14.80
2022-12-19T02:44:22.730Z,14.30
2022-12-19T02:46:54.662Z,12.50
2022-12-19T02:49:30.997Z,12.33
2022-12-19T02:52:10.878Z,12.90
2022-12-19T02:54:45.132Z,11.87
2022-12-19T02:57:22.136Z,10.83
2022-12-19T02:59:57.830Z,12.77
2022-12-19T03:02:35.168Z,9.97
2022-12-19T03:05:09.293Z,15.40
2022-12-19T03:07:42.385Z,13.13
2022-12-19T03:10:15.066Z,10.57
2022-12-19T03:12:48.818Z,13.10
2022-12-19T03:15:18.333Z,12.57
2022-12-19T03:17:49.962Z,13.50
2022-12-19T03:20:22.075Z,11.17
2022-12-19T03:22:51.365Z,11.50
2022-12-19T03:25:22.711Z,13.43
2022-12-19T03:27:52.866Z,15.77
2022-12-19T03:30:22.117Z,12.07
2022-12-19T03:32:53.344Z,10.70
2022-12-19T03:35:24.042Z,10.23
2022-12-19T03:37:54.849Z,14.80
2022-12-19T03:40:26.052Z,12.30
2022-12-19T03:43:11.568Z,12.37
2022-12-19T03:45:46.850Z,14.47
2022-12-19T03:48:19.170Z,13.20
2022-12-19T03:50:50.929Z,12.60
2022-12-19T03:53:25.431Z,16.10
2022-12-19T03:55:56.912Z,12.00
2022-12-19T03:58:28.934Z,14.03
2022-12-19T04:01:01.659Z,13.73
2022-12-19T04:03:33.673Z,12.93
2022-12-19T04:06:03.747Z,14.30
2022-12-19T04:08:33.457Z,16.30
2022-12-19T04:11:06.444Z,13.13
2022-12-19T04:13:37.777Z,12.80
2022-12-19T04:16:13.918Z,15.17
2022-12-19T04:18:48.431Z,12.00
2022-12-19T04:21:21.104Z,14.47
2022-12-19T04:23:52.801Z,14.90
2022-12-19T04:26:22.536Z,20.37
2022-12-19T04:28:53.224Z,12.20
2022-12-19T04:31:23.494Z,13.17
2022-12-19T04:33:54.162Z,11.20
2022-12-19T04:36:23.458Z,14.87
2022-12-19T04:38:53.170Z,12.27
2022-12-19T04:41:22.299Z,11.73
2022-12-19T04:43:51.703Z,13.50
2022-12-19T04:46:20.990Z,12.83
2022-12-19T04:48:50.136Z,11.00
2022-12-19T04:51:20.956Z,10.37
2022-12-19T04:53:50.251Z,12.37
2022-12-19T04:56:19.513Z,15.00
2022-12-19T04:58:48.706Z,13.10
2022-12-19T05:01:18.904Z,13.10
2022-12-19T05:03:54.214Z,13.90
2022-12-19T05:06:26.418Z,12.33
2022-12-19T05:08:55.800Z,12.67
2022-12-19T05:11:25.126Z,11.03
2022-12-19T05:13:54.365Z,9.10
2022-12-19T05:16:23.497Z,16.73
2022-12-19T05:18:52.790Z,9.53
2022-12-19T05:21:22.708Z,11.33
2022-12-19T05:23:53.526Z,13.00
2022-12-19T05:26:22.868Z,14.83
2022-12-19T05:28:52.543Z,13.93
2022-12-19T05:31:22.784Z,16.27
2022-12-19T05:33:52.272Z,9.60
2022-12-19T05:36:21.568Z,11.03
2022-12-19T05:38:51.017Z,11.77
2022-12-19T05:41:22.139Z,16.77
2022-12-19T05:43:52.601Z,37.27
2022-12-19T05:46:21.890Z,15.03
2022-12-19T05:48:51.387Z,19.67
2022-12-19T05:51:21.180Z,17.87
2022-12-19T05:53:50.463Z,15.20
2022-12-19T05:56:20.265Z,14.07
2022-12-19T05:58:51.458Z,14.43
2022-12-19T06:01:22.168Z,14.50
2022-12-19T06:03:51.428Z,18.33
2022-12-19T06:06:22.127Z,14.03
2022-12-19T06:08:54.375Z,13.73
2022-12-19T06:11:23.688Z,14.00
2022-12-19T06:13:54.416Z,21.87
2022-12-19T06:16:24.363Z,14.60
2022-12-19T06:18:53.677Z,13.47
2022-12-19T06:21:23.815Z,16.03
2022-12-19T06:23:53.105Z,15.57
2022-12-19T06:26:22.810Z,15.47
2022-12-19T06:28:52.927Z,14.50
2022-12-19T06:31:25.089Z,16.07
2022-12-19T06:33:54.808Z,19.73
2022-12-19T06:36:24.890Z,17.83
2022-12-19T06:38:54.390Z,18.60
2022-12-19T06:41:41.342Z,19.03
2022-12-19T06:44:12.776Z,17.57
2022-12-19T06:46:43.761Z,15.90
2022-12-19T06:49:13.480Z,25.33
2022-12-19T06:51:42.815Z,16.20
2022-12-19T06:54:12.345Z,17.63
2022-12-19T06:56:43.007Z,16.53
2022-12-19T06:59:14.388Z,17.90
2022-12-19T07:01:57.221Z,15.13
2022-12-19T07:04:29.004Z,18.90
2022-12-19T07:07:00.270Z,20.83
2022-12-19T07:09:30.823Z,18.90
2022-12-19T07:12:00.112Z,17.97
2022-12-19T07:14:29.372Z,23.47
2022-12-19T07:17:00.307Z,16.30
2022-12-19T07:19:30.067Z,20.03
2022-12-19T07:21:59.681Z,17.73
2022-12-19T07:24:29.190Z,16.23
2022-12-19T07:26:58.732Z,19.00
2022-12-19T07:29:28.387Z,24.90
2022-12-19T07:31:57.624Z,18.37
2022-12-19T07:34:28.339Z,18.70
2022-12-19T07:36:57.834Z,22.40
2022-12-19T07:39:27.938Z,21.17
2022-12-19T07:41:57.290Z,20.37
2022-12-19T07:44:37.191Z,19.00
2022-12-19T07:47:14.016Z,17.90
2022-12-19T07:49:44.837Z,23.07
2022-12-19T07:52:14.052Z,25.77
2022-12-19T07:54:43.460Z,33.80
2022-12-19T07:57:12.657Z,37.07
2022-12-19T07:59:42.097Z,27.30
2022-12-19T08:02:11.459Z,35.20
2022-12-19T08:04:41.140Z,36.17
2022-12-19T08:07:11.903Z,35.30
2022-12-19T08:09:41.384Z,36.03
2022-12-19T08:12:10.798Z,77.90
2022-12-19T08:14:40.056Z,69.27
2022-12-19T08:17:25.085Z,92.67
2022-12-19T08:19:54.606Z,49.93
2022-12-19T08:22:25.306Z,69.67
2022-12-19T08:24:54.772Z,128.23
2022-12-19T08:27:23.937Z,52.17
2022-12-19T08:29:53.242Z,38.10
2022-12-19T08:32:22.666Z,44.90
2022-12-19T08:34:52.106Z,35.97
2022-12-19T08:37:21.268Z,26.23
2022-12-19T08:39:52.040Z,38.40
2022-12-19T08:42:21.485Z,28.53
2022-12-19T08:44:50.679Z,30.87
2022-12-19T08:47:19.908Z,36.33
2022-12-19T08:49:49.208Z,34.43
2022-12-19T08:52:19.105Z,32.50
2022-12-19T08:54:48.608Z,36.10
2022-12-19T08:57:19.249Z,30.23
2022-12-19T08:59:48.619Z,28.77
2022-12-19T09:02:19.237Z,32.63
2022-12-19T09:06:00.194Z,28.43
2022-12-19T09:07:39.888Z,24.90
2022-12-19T09:10:09.812Z,29.30
2022-12-19T09:12:40.762Z,25.40
2022-12-19T09:15:10.445Z,30.43
2022-12-19T09:17:39.721Z,20.20
2022-12-19T09:20:09.413Z,17.90
2022-12-19T09:22:38.598Z,25.33
2022-12-19T09:25:08.596Z,26.43
2022-12-19T09:28:09.252Z,36.63
2022-12-19T09:30:29.258Z,41.90
2022-12-19T09:33:00.311Z,36.07
2022-12-19T09:35:30.630Z,34.97
2022-12-19T09:38:00.658Z,39.03
2022-12-19T09:40:31.260Z,42.33
2022-12-19T09:43:06.012Z,42.47
2022-12-19T09:45:52.161Z,34.93
2022-12-19T09:48:24.677Z,36.53
2022-12-19T09:51:09.555Z,44.40
2022-12-19T09:53:43.937Z,37.57
2022-12-19T09:56:16.398Z,44.13
2022-12-19T09:58:48.672Z,36.03
2022-12-19T10:01:21.894Z,31.70
2022-12-19T10:03:56.790Z,28.93
2022-12-19T10:07:22.011Z,33.00
2022-12-19T10:12:15.496Z,29.80
2022-12-19T10:12:44.384Z,35.30
2022-12-19T10:15:10.545Z,30.27
2022-12-19T10:17:52.340Z,22.97
2022-12-19T10:20:24.261Z,32.83
2022-12-19T10:23:06.406Z,24.07
2022-12-19T10:25:39.810Z,23.70
2022-12-19T10:28:16.452Z,27.97
2022-12-19T10:30:49.921Z,18.40
2022-12-19T10:33:24.667Z,18.00
2022-12-19T10:35:56.108Z,12.27
2022-12-19T10:38:33.593Z,15.83
2022-12-19T10:41:11.314Z,5.57
2022-12-19T10:43:44.923Z,10.43
2022-12-19T10:46:17.357Z,7.73
2022-12-19T10:48:48.911Z,10.77
2022-12-19T10:51:26.230Z,17.70
2022-12-19T10:53:57.341Z,18.13
2022-12-19T10:56:33.177Z,14.07
2022-12-19T10:59:07.282Z,19.10
2022-12-19T11:01:40.495Z,12.60
2022-12-19T11:04:21.878Z,9.53
2022-12-19T11:06:53.596Z,8.80
2022-12-19T11:09:29.123Z,9.37
2022-12-19T11:15:39.595Z,10.23
2022-12-19T11:18:20.960Z,8.93
2022-12-19T11:26:25.955Z,10.73
2022-12-19T11:29:34.735Z,10.83
2022-12-19T11:30:39.550Z,7.83
2022-12-19T11:30:45.505Z,9.37
2022-12-19T11:32:01.701Z,7.90
2022-12-19T11:32:39.559Z,8.63
2022-12-19T11:35:17.928Z,13.03
2022-12-19T11:37:55.533Z,12.40
2022-12-19T11:40:30.346Z,9.90
2022-12-19T11:43:41.968Z,16.23
2022-12-19T11:45:54.293Z,10.00
2022-12-19T11:48:26.275Z,8.60
2022-12-19T11:50:58.787Z,9.37
2022-12-19T11:53:31.819Z,13.33
2022-12-19T11:56:05.520Z,18.97
2022-12-19T11:58:47.690Z,9.13
2022-12-19T12:01:20.877Z,8.87
2022-12-19T12:04:03.505Z,13.13
2022-12-19T12:06:35.406Z,10.43
2022-12-19T12:11:16.413Z,12.70
2022-12-19T12:20:19.383Z,15.93
2022-12-19T12:28:32.371Z,13.13
2022-12-19T12:31:04.929Z,8.40
2022-12-19T12:31:13.895Z,8.80
2022-12-19T12:31:18.626Z,11.83
2022-12-19T12:31:50.447Z,12.53
2022-12-19T12:32:04.342Z,11.83
2022-12-19T12:35:56.641Z,17.30
2022-12-19T12:38:39.466Z,11.07
2022-12-19T12:41:13.241Z,11.83
2022-12-19T12:43:48.834Z,13.80
2022-12-19T12:46:21.725Z,8.97
2022-12-19T12:48:53.744Z,16.37
2022-12-19T12:51:24.135Z,9.90
2022-12-19T12:54:05.426Z,14.17
2022-12-19T12:56:35.448Z,14.40
2022-12-19T12:59:07.044Z,15.97
2022-12-19T13:01:40.440Z,11.33
2022-12-19T13:04:20.969Z,15.17
2022-12-19T13:07:20.269Z,12.03
2022-12-19T13:09:53.667Z,17.13
2022-12-19T13:12:46.168Z,21.37
2022-12-19T13:15:32.923Z,14.77
2022-12-19T13:18:03.355Z,10.03
2022-12-19T13:20:43.126Z,16.67
2022-12-19T13:23:24.078Z,14.30
2022-12-19T13:25:55.254Z,12.03
2022-12-19T13:28:40.276Z,11.73
2022-12-19T13:31:23.477Z,13.30
2022-12-19T13:34:11.741Z,9.80
2022-12-19T13:39:47.738Z,15.90
2022-12-19T13:39:56.519Z,10.43
2022-12-19T13:42:48.086Z,15.90
2022-12-19T13:45:23.686Z,14.93
2022-12-19T13:47:55.507Z,15.10
2022-12-19T13:50:27.838Z,15.40
2022-12-19T13:52:57.118Z,13.30
2022-12-19T13:55:26.581Z,15.20
2022-12-19T13:57:56.376Z,13.20
2022-12-19T14:00:38.415Z,12.80
2022-12-19T14:03:15.238Z,11.60
2022-12-19T14:06:16.512Z,15.23
2022-12-19T14:08:33.757Z,13.40
2022-12-19T14:11:34.242Z,13.40
2022-12-19T14:14:19.198Z,11.50
2022-12-19T14:16:51.943Z,14.87
2022-12-19T14:19:23.843Z,11.40
2022-12-19T14:22:04.004Z,11.90
2022-12-19T14:24:37.512Z,10.00
2022-12-19T14:28:17.603Z,9.70
2022-12-19T14:30:27.901Z,10.20
2022-12-19T14:33:47.501Z,17.20
2022-12-19T14:36:10.890Z,9.70
2022-12-19T14:39:22.601Z,8.17
2022-12-19T14:41:56.013Z,6.93
2022-12-19T14:51:42.930Z,4.93
2022-12-19T14:54:09.146Z,8.40
2022-12-19T14:54:14.618Z,3.90
2022-12-19T14:54:22.084Z,7.20
2022-12-19T14:59:01.256Z,6.93
2022-12-19T15:01:32.726Z,5.37
2022-12-19T15:04:48.203Z,7.37
2022-12-19T15:07:09.010Z,6.10
2022-12-19T15:11:00.470Z,7.20
2022-12-19T15:14:20.672Z,8.30
2022-12-19T15:15:46.285Z,12.57
2022-12-19T15:18:21.336Z,6.87
2022-12-19T15:20:51.008Z,8.73
2022-12-19T15:23:22.693Z,4.70
2022-12-19T15:26:10.190Z,6.40
2022-12-19T15:28:40.801Z,5.27
2022-12-19T15:31:14.375Z,6.77
2022-12-19T15:34:06.654Z,6.97
2022-12-19T15:36:34.533Z,6.90
2022-12-19T15:39:04.368Z,8.37
2022-12-19T15:41:35.048Z,8.73
2022-12-19T15:44:09.313Z,8.83
2022-12-19T15:46:44.540Z,6.23
2022-12-19T15:49:16.919Z,8.93
2022-12-19T15:51:46.199Z,11.30
2022-12-19T15:54:47.824Z,9.00
2022-12-19T15:57:06.717Z,10.93
2022-12-19T15:59:38.720Z,6.97
2022-12-19T16:02:17.425Z,8.10
2022-12-19T16:04:47.368Z,14.53
2022-12-19T16:07:17.945Z,8.57
2022-12-19T16:09:47.655Z,11.37
2022-12-19T16:12:20.350Z,9.63
2022-12-19T16:14:51.399Z,8.73
2022-12-19T16:17:22.507Z,29.73
2022-12-19T16:19:52.584Z,8.20
2022-12-19T16:22:23.425Z,12.80
2022-12-19T16:24:52.860Z,12.77
2022-12-19T16:27:26.976Z,12.33
2022-12-19T16:29:56.824Z,7.70
2022-12-19T16:32:26.428Z,12.27
2022-12-19T16:34:55.913Z,14.63
2022-12-19T16:37:31.851Z,10.50
2022-12-19T16:40:02.356Z,16.20
2022-12-19T16:42:33.932Z,14.70
2022-12-19T16:45:03.503Z,12.33
2022-12-19T16:47:32.728Z,14.40
2022-12-19T16:50:02.077Z,18.33
2022-12-19T16:52:32.580Z,24.53
2022-12-19T16:55:04.343Z,16.53
2022-12-19T16:57:35.044Z,18.40
2022-12-19T17:00:04.552Z,19.30
2022-12-19T17:02:42.692Z,18.50
2022-12-19T17:05:16.800Z,14.23
2022-12-19T17:07:46.151Z,18.70
2022-12-19T17:10:18.721Z,18.00
2022-12-19T17:12:52.195Z,15.20
2022-12-19T17:15:26.512Z,17.77
2022-12-19T17:17:56.447Z,20.57
2022-12-19T17:20:27.234Z,17.53
2022-12-19T17:22:57.079Z,19.00
2022-12-19T17:25:27.378Z,27.30
2022-12-19T17:27:58.396Z,24.33
2022-12-19T17:30:27.763Z,26.40
2022-12-19T17:32:57.774Z,21.13
2022-12-19T17:35:29.584Z,18.47
2022-12-19T17:37:59.550Z,20.83
2022-12-19T17:40:29.976Z,27.53
2022-12-19T17:43:00.905Z,25.53
2022-12-19T17:45:31.106Z,25.97
2022-12-19T17:48:03.020Z,27.57
2022-12-19T17:50:34.124Z,19.70
2022-12-19T17:53:03.656Z,22.43
2022-12-19T17:55:33.586Z,21.47
2022-12-19T17:58:04.254Z,29.43
2022-12-19T18:00:34.518Z,32.53
2022-12-19T18:03:06.145Z,30.77
2022-12-19T18:05:37.161Z,17.00
2022-12-19T18:08:08.939Z,24.67
2022-12-19T18:10:38.418Z,20.30
2022-12-19T18:13:08.986Z,23.97
2022-12-19T18:15:38.238Z,19.03
2022-12-19T18:18:07.674Z,19.73
2022-12-19T18:20:37.129Z,21.70
2022-12-19T18:23:12.100Z,23.57
2022-12-19T18:25:41.520Z,80.33
2022-12-19T18:28:12.174Z,29.73
2022-12-19T18:30:41.879Z,16.50
2022-12-19T18:33:15.614Z,18.27
2022-12-19T18:35:47.719Z,17.50
2022-12-19T18:38:17.915Z,21.53
2022-12-19T18:40:47.568Z,18.87
2022-12-19T18:43:19.198Z,23.83
2022-12-19T18:45:49.430Z,18.77
2022-12-19T18:48:21.149Z,16.33
2022-12-19T18:50:50.583Z,22.27
2022-12-19T18:53:22.006Z,19.90
2022-12-19T18:55:51.374Z,18.50
2022-12-19T18:58:22.156Z,21.67
2022-12-19T19:00:57.235Z,39.53
2022-12-19T19:03:30.380Z,24.10
2022-12-19T19:05:59.771Z,21.87
2022-12-19T19:08:30.622Z,28.20
2022-12-19T19:11:20.523Z,28.97
2022-12-19T19:13:51.905Z,26.50
2022-12-19T19:16:23.161Z,34.40
2022-12-19T19:18:54.623Z,28.70
2022-12-19T19:21:25.384Z,36.00
2022-12-19T19:23:56.829Z,31.40
2022-12-19T19:26:26.215Z,21.60
2022-12-19T19:28:56.829Z,23.83
2022-12-19T19:31:27.766Z,27.10
2022-12-19T19:34:00.307Z,23.50
2022-12-19T19:36:31.562Z,26.43
2022-12-19T19:39:00.822Z,23.80
2022-12-19T19:41:31.000Z,31.03
2022-12-19T19:44:02.221Z,22.77
2022-12-19T19:46:32.820Z,22.90
2022-12-19T19:49:02.307Z,23.13
2022-12-19T19:51:31.547Z,30.03
2022-12-19T19:54:00.746Z,24.97
2022-12-19T19:56:30.193Z,23.83
2022-12-19T19:59:00.565Z,21.80
2022-12-19T20:04:24.238Z,31.93
2022-12-19T20:06:53.616Z,29.07
2022-12-19T20:09:22.861Z,26.00
2022-12-19T20:11:52.151Z,28.57
2022-12-19T20:14:21.583Z,22.77
2022-12-19T20:16:52.642Z,18.07
2022-12-19T20:19:22.073Z,24.43
2022-12-19T20:21:51.817Z,24.30
2022-12-19T20:24:21.477Z,22.77
2022-12-19T20:26:50.671Z,20.57
2022-12-19T20:29:20.842Z,20.00
2022-12-19T20:31:50.125Z,26.17
2022-12-19T20:34:21.271Z,19.10
2022-12-19T20:36:50.745Z,18.97
2022-12-19T20:39:22.328Z,22.37
2022-12-19T20:41:52.055Z,19.93
2022-12-19T20:44:24.496Z,17.93
2022-12-19T20:46:54.430Z,20.23
2022-12-19T20:49:25.501Z,16.27
2022-12-19T20:51:54.835Z,20.47
2022-12-19T20:54:24.211Z,38.47
2022-12-19T20:56:53.557Z,16.57
2022-12-19T20:59:22.938Z,20.80
2022-12-19T21:01:52.266Z,17.37
2022-12-19T21:04:21.905Z,20.40
2022-12-19T21:06:52.815Z,18.97
2022-12-19T21:09:22.074Z,15.00
2022-12-19T21:11:51.618Z,16.90
2022-12-19T21:14:20.805Z,17.10
2022-12-19T21:16:50.017Z,14.30
2022-12-19T21:19:19.298Z,14.03
2022-12-19T21:21:48.581Z,12.40
2022-12-19T21:24:19.264Z,13.40
2022-12-19T21:26:57.801Z,28.67
2022-12-19T21:29:27.689Z,10.73
2022-12-19T21:31:56.966Z,16.60
2022-12-19T21:34:26.183Z,12.50
2022-12-19T21:36:55.613Z,19.17
2022-12-19T21:39:26.805Z,17.30
2022-12-19T21:41:56.028Z,17.10
2022-12-19T21:44:25.154Z,18.00
2022-12-19T21:46:54.977Z,16.40
2022-12-19T21:49:24.178Z,17.23
2022-12-19T21:51:53.635Z,14.23
2022-12-19T21:54:22.782Z,22.77
2022-12-19T21:56:56.996Z,20.20
2022-12-19T21:59:26.243Z,14.83
2022-12-19T22:01:55.685Z,17.33
2022-12-19T22:04:27.158Z,21.50
2022-12-19T22:06:56.454Z,21.90
2022-12-19T22:09:25.717Z,14.43
2022-12-19T22:11:56.693Z,17.80
2022-12-19T22:14:25.978Z,20.87
2022-12-19T22:16:55.318Z,15.20
2022-12-19T22:19:24.579Z,15.47
2022-12-19T22:21:53.851Z,12.13
2022-12-19T22:24:23.066Z,13.87
2022-12-19T22:26:52.400Z,10.50
2022-12-19T22:29:23.048Z,14.10
2022-12-19T22:31:52.459Z,12.17
2022-12-19T22:34:22.454Z,14.60
2022-12-19T22:36:51.906Z,12.20
2022-12-19T22:39:22.623Z,9.10
2022-12-19T22:41:52.256Z,16.97
2022-12-19T22:44:23.761Z,16.77
2022-12-19T22:46:53.723Z,16.20
2022-12-19T22:49:22.943Z,16.33
2022-12-19T22:51:52.325Z,15.33
2022-12-19T22:54:21.652Z,14.43
2022-12-19T22:56:52.105Z,11.17
2022-12-19T22:59:22.748Z,10.60
2022-12-19T23:01:52.084Z,28.50
2022-12-19T23:04:21.754Z,12.20
2022-12-19T23:06:51.118Z,12.10
2022-12-19T23:09:20.568Z,13.03
2022-12-19T23:11:50.751Z,10.97
2022-12-19T23:14:21.129Z,15.43
2022-12-19T23:16:51.900Z,20.80
2022-12-19T23:19:21.309Z,19.57
2022-12-19T23:21:50.645Z,10.27
2022-12-19T23:24:19.931Z,14.87
2022-12-19T23:26:49.137Z,13.80
2022-12-19T23:29:18.404Z,13.50
2022-12-19T23:31:48.621Z,16.67
2022-12-19T23:34:19.291Z,18.67
2022-12-19T23:39:42.117Z,24.20
2022-12-19T23:42:11.754Z,17.53
2022-12-19T23:44:40.991Z,19.90
2022-12-19T23:47:10.340Z,22.97
2022-12-19T23:49:41.494Z,19.70
2022-12-19T23:52:10.909Z,21.70
2022-12-19T23:54:40.180Z,20.60
2022-12-19T23:57:09.539Z,22.93
2022-12-19T23:59:38.847Z,20.03
